EmailTwitter


Surface observations / Quebec / CYUL (71627)

Regions: Quebec | Canada | USA | Europe | France | UK | Elsewhere
Station
Display
Info & Location for CYUL (71627) | Help decoding METAR

Weather Conditions observed on 2017/10/21 at 08:00 UTC at MONTREAL INTL A, QB (CYUL)

Sky conditions: few clouds.

Temperature: 11.0 Celsius.

Dewpoint: 5.0 Celsius.

Relative Humidity: 66%

Winds: Southwest at 9 km/h or 5 knots.

Mean Sea level Pressure: 102.12 kilopascals.

Altimeter Setting (QNH): 102.10 kilopascals or 30.15 inches of mercury.

Horizontal visibility: 15.00 statute miles or 24.00 kilometers.

Coded METAR:

CYUL 210800Z 24005KT 15SM FEW065 FEW240 11/05 A3015 RMK SC1CI1 SC TR CI TR

SLP212=